createdAt,value
2022-10-22T00:01:14.688Z,89.30
2022-10-22T00:03:41.381Z,89.60
2022-10-22T00:06:08.060Z,89.60
2022-10-22T00:08:34.712Z,89.50
2022-10-22T00:11:07.762Z,89.30
2022-10-22T00:13:34.360Z,89.40
2022-10-22T00:16:00.975Z,89.30
2022-10-22T00:18:27.574Z,89.30
2022-10-22T00:20:54.186Z,88.90
2022-10-22T00:23:21.357Z,88.60
2022-10-22T00:25:48.040Z,88.60
2022-10-22T00:28:15.213Z,88.60
2022-10-22T00:30:41.821Z,88.30
2022-10-22T00:33:08.435Z,88.10
2022-10-22T00:35:35.046Z,88.10
2022-10-22T00:38:01.756Z,87.60
2022-10-22T00:40:28.381Z,87.60
2022-10-22T00:42:55.250Z,87.50
2022-10-22T00:45:23.560Z,88.10
2022-10-22T00:48:05.387Z,89.20
2022-10-22T00:50:37.971Z,89.30
2022-10-22T00:53:06.485Z,89.30
2022-10-22T00:55:33.369Z,89.00
2022-10-22T00:58:01.293Z,88.50
2022-10-22T01:00:28.049Z,88.80
2022-10-22T01:02:55.235Z,89.10
2022-10-22T01:05:22.225Z,89.10
2022-10-22T01:07:51.067Z,89.30
2022-10-22T01:10:26.902Z,89.60
2022-10-22T01:12:57.357Z,90.20
2022-10-22T01:15:28.041Z,89.70
2022-10-22T01:18:00.290Z,89.80
2022-10-22T01:20:29.939Z,89.90
2022-10-22T01:23:13.898Z,90.10
2022-10-22T01:26:00.773Z,90.00
2022-10-22T01:28:36.151Z,88.90
2022-10-22T01:31:03.744Z,83.20
2022-10-22T01:33:30.899Z,83.00
2022-10-22T01:35:57.669Z,83.10
2022-10-22T01:38:24.960Z,83.80
2022-10-22T01:40:51.702Z,85.40
2022-10-22T01:43:18.491Z,85.20
2022-10-22T01:45:47.264Z,85.30
2022-10-22T01:48:32.737Z,85.80
2022-10-22T01:51:18.222Z,86.30
2022-10-22T01:53:53.829Z,85.90
2022-10-22T01:56:29.640Z,86.10
2022-10-22T01:59:15.573Z,86.20
2022-10-22T02:02:02.432Z,86.40
2022-10-22T02:04:58.494Z,86.40
2022-10-22T02:07:26.861Z,87.30
2022-10-22T02:09:54.858Z,87.50
2022-10-22T02:12:22.732Z,87.70
2022-10-22T02:14:50.570Z,88.10
2022-10-22T02:17:19.912Z,88.30
2022-10-22T02:19:56.944Z,88.80
2022-10-22T02:22:23.954Z,88.00
2022-10-22T02:24:50.578Z,88.30
2022-10-22T02:27:26.060Z,87.70
2022-10-22T02:29:59.816Z,87.90
2022-10-22T02:32:29.813Z,87.40
2022-10-22T02:34:56.890Z,87.80
2022-10-22T02:37:24.371Z,87.30
2022-10-22T02:39:51.520Z,87.50
2022-10-22T02:42:18.320Z,88.40
2022-10-22T02:44:44.920Z,88.30
2022-10-22T02:47:11.529Z,88.30
2022-10-22T02:49:38.137Z,87.10
2022-10-22T02:52:04.806Z,87.50
2022-10-22T02:54:31.553Z,87.70
2022-10-22T02:56:58.172Z,87.10
2022-10-22T02:59:24.795Z,87.60
2022-10-22T03:01:51.404Z,87.70
2022-10-22T03:04:18.052Z,87.60
2022-10-22T03:06:44.805Z,87.40
2022-10-22T03:09:11.544Z,87.30
2022-10-22T03:11:38.185Z,86.50
2022-10-22T03:14:04.830Z,86.70
2022-10-22T03:16:31.683Z,86.40
2022-10-22T03:18:58.273Z,87.30
2022-10-22T03:21:24.864Z,87.70
2022-10-22T03:23:51.927Z,87.20
2022-10-22T03:26:18.633Z,87.10
2022-10-22T03:28:46.729Z,87.40
2022-10-22T03:31:13.464Z,87.10
2022-10-22T03:33:40.123Z,87.30
2022-10-22T03:36:07.557Z,85.90
2022-10-22T03:38:35.625Z,86.70
2022-10-22T03:41:02.231Z,87.20
2022-10-22T03:43:28.935Z,87.00
2022-10-22T03:45:55.662Z,87.60
2022-10-22T03:48:22.288Z,87.10
2022-10-22T03:50:49.396Z,87.50
2022-10-22T03:53:16.020Z,86.30
2022-10-22T03:55:42.795Z,86.30
2022-10-22T03:58:09.530Z,86.80
2022-10-22T04:00:36.174Z,86.40
2022-10-22T04:03:02.851Z,87.20
2022-10-22T04:05:29.471Z,86.60
2022-10-22T04:07:56.141Z,86.70
2022-10-22T04:10:22.816Z,86.80
2022-10-22T04:12:49.479Z,87.00
2022-10-22T04:15:16.341Z,86.70
2022-10-22T04:17:43.535Z,87.10
2022-10-22T04:20:10.629Z,87.00
2022-10-22T04:22:37.312Z,87.20
2022-10-22T04:25:04.469Z,87.30
2022-10-22T04:27:31.918Z,86.90
2022-10-22T04:29:58.515Z,86.90
2022-10-22T04:32:25.848Z,86.60
2022-10-22T04:34:52.459Z,86.50
2022-10-22T04:37:19.175Z,86.10
2022-10-22T04:39:45.794Z,87.00
2022-10-22T04:42:12.684Z,87.50
2022-10-22T04:44:39.292Z,87.80
2022-10-22T04:47:05.902Z,86.80
2022-10-22T04:49:32.540Z,86.90
2022-10-22T04:51:59.207Z,87.20
2022-10-22T04:54:28.981Z,87.00
2022-10-22T04:56:58.852Z,87.00
2022-10-22T04:59:25.514Z,87.00
2022-10-22T05:01:52.184Z,87.30
2022-10-22T05:04:19.698Z,86.90
2022-10-22T05:06:46.936Z,87.70
2022-10-22T05:09:14.960Z,88.30
2022-10-22T05:11:45.299Z,87.90
2022-10-22T05:14:12.333Z,87.70
2022-10-22T05:16:39.160Z,87.40
2022-10-22T05:19:06.835Z,86.80
2022-10-22T05:21:34.137Z,87.10
2022-10-22T05:24:00.891Z,87.30
2022-10-22T05:26:28.418Z,87.00
2022-10-22T05:28:55.008Z,87.20
2022-10-22T05:31:21.783Z,87.60
2022-10-22T05:33:48.465Z,87.90
2022-10-22T05:36:19.577Z,88.30
2022-10-22T05:38:46.219Z,88.00
2022-10-22T05:41:13.994Z,88.20
2022-10-22T05:43:40.620Z,88.00
2022-10-22T05:46:08.441Z,87.90
2022-10-22T05:48:35.195Z,88.00
2022-10-22T05:51:09.326Z,88.00
2022-10-22T05:53:36.875Z,88.80
2022-10-22T05:56:05.351Z,88.90
2022-10-22T05:58:32.061Z,88.60
2022-10-22T06:01:03.021Z,88.80
2022-10-22T06:03:29.769Z,88.40
2022-10-22T06:05:56.385Z,88.40
2022-10-22T06:08:22.991Z,88.10
2022-10-22T06:10:49.603Z,88.40
2022-10-22T06:13:16.210Z,88.40
2022-10-22T06:15:43.390Z,88.40
2022-10-22T06:18:10.803Z,87.80
2022-10-22T06:20:37.744Z,87.80
2022-10-22T06:23:04.386Z,87.50
2022-10-22T06:25:30.992Z,87.70
2022-10-22T06:27:57.629Z,88.00
2022-10-22T06:30:24.253Z,88.90
2022-10-22T06:32:50.839Z,89.40
2022-10-22T06:35:17.549Z,89.70
2022-10-22T06:37:44.196Z,90.00
2022-10-22T06:40:11.023Z,90.10
2022-10-22T06:42:37.773Z,90.10
2022-10-22T06:45:04.826Z,90.30
2022-10-22T06:47:33.300Z,89.90
2022-10-22T06:49:59.951Z,89.70
2022-10-22T06:52:26.567Z,89.70
2022-10-22T06:54:53.163Z,89.60
2022-10-22T06:57:19.781Z,89.30
2022-10-22T06:59:46.476Z,89.00
2022-10-22T07:02:13.452Z,89.20
2022-10-22T07:04:40.146Z,88.40
2022-10-22T07:07:07.165Z,88.70
2022-10-22T07:09:33.745Z,88.50
2022-10-22T07:12:00.346Z,88.30
2022-10-22T07:14:26.940Z,88.00
2022-10-22T07:16:53.535Z,87.70
2022-10-22T07:19:20.142Z,87.20
2022-10-22T07:21:46.768Z,87.00
2022-10-22T07:24:13.461Z,86.30
2022-10-22T07:26:40.076Z,86.40
2022-10-22T07:29:06.850Z,86.00
2022-10-22T07:31:33.470Z,85.80
2022-10-22T07:34:00.111Z,85.90
2022-10-22T07:36:26.803Z,85.90
2022-10-22T07:38:55.433Z,85.60
2022-10-22T07:41:22.034Z,85.40
2022-10-22T07:43:48.625Z,85.70
2022-10-22T07:46:15.316Z,86.20
2022-10-22T07:48:42.088Z,85.80
2022-10-22T07:51:09.048Z,86.10
2022-10-22T07:53:35.736Z,86.30
2022-10-22T07:56:02.509Z,86.40
2022-10-22T07:58:29.288Z,86.30
2022-10-22T08:00:57.065Z,86.30
2022-10-22T08:03:23.985Z,86.30
2022-10-22T08:05:51.458Z,86.20
2022-10-22T08:08:18.134Z,86.10
2022-10-22T08:10:45.742Z,86.00
2022-10-22T08:13:12.345Z,85.60
2022-10-22T08:15:39.328Z,85.30
2022-10-22T08:18:06.010Z,84.80
2022-10-22T08:20:32.683Z,85.00
2022-10-22T08:22:59.496Z,85.60
2022-10-22T08:25:26.180Z,85.70
2022-10-22T08:27:52.947Z,84.60
2022-10-22T08:30:19.902Z,84.90
2022-10-22T08:32:47.679Z,85.00
2022-10-22T08:35:16.951Z,85.00
2022-10-22T08:37:44.507Z,85.20
2022-10-22T08:40:18.590Z,85.10
2022-10-22T08:42:54.947Z,84.40
2022-10-22T08:45:30.496Z,83.90
2022-10-22T08:48:00.145Z,83.90
2022-10-22T08:50:50.104Z,83.90
2022-10-22T08:53:22.078Z,84.10
2022-10-22T08:55:49.872Z,83.90
2022-10-22T08:58:29.953Z,83.80
2022-10-22T09:01:01.020Z,83.70
2022-10-22T09:03:31.485Z,83.50
2022-10-22T09:06:02.565Z,83.60
2022-10-22T09:08:29.788Z,83.60
2022-10-22T09:11:01.633Z,84.00
2022-10-22T09:13:28.987Z,83.10
2022-10-22T09:15:57.853Z,83.00
2022-10-22T09:18:41.589Z,81.70
2022-10-22T09:21:28.461Z,82.50
2022-10-22T09:23:55.023Z,82.40
2022-10-22T09:26:21.867Z,82.40
2022-10-22T09:28:51.969Z,82.40
2022-10-22T09:31:18.664Z,82.20
2022-10-22T09:33:46.173Z,80.50
2022-10-22T09:36:16.887Z,79.20
2022-10-22T09:38:50.676Z,79.50
2022-10-22T09:41:18.354Z,79.00
2022-10-22T09:43:48.320Z,80.00
2022-10-22T09:46:19.917Z,78.70
2022-10-22T09:48:55.558Z,78.40
2022-10-22T09:51:23.202Z,79.90
2022-10-22T09:53:57.162Z,80.30
2022-10-22T09:56:28.012Z,78.20
2022-10-22T09:58:58.137Z,78.80
2022-10-22T10:01:26.497Z,76.30
2022-10-22T10:03:53.415Z,76.80
2022-10-22T10:06:21.576Z,77.20
2022-10-22T10:08:48.705Z,75.90
2022-10-22T10:11:37.261Z,76.60
2022-10-22T10:14:09.881Z,76.60
2022-10-22T10:16:41.113Z,75.50
2022-10-22T10:19:13.709Z,74.60
2022-10-22T10:22:01.369Z,73.70
2022-10-22T10:24:54.221Z,74.20
2022-10-22T10:27:34.841Z,73.30
2022-10-22T10:30:15.793Z,73.70
2022-10-22T10:32:55.076Z,72.50
2022-10-22T10:35:24.773Z,72.10
2022-10-22T10:38:00.231Z,72.90
2022-10-22T10:40:29.669Z,72.00
2022-10-22T10:43:06.829Z,70.30
2022-10-22T10:45:57.313Z,69.80
2022-10-22T10:48:38.433Z,69.60
2022-10-22T10:51:23.353Z,69.30
2022-10-22T10:53:57.033Z,68.30
2022-10-22T10:56:39.348Z,68.20
2022-10-22T10:59:12.056Z,65.90
2022-10-22T11:01:50.985Z,67.40
2022-10-22T11:04:17.580Z,66.60
2022-10-22T11:06:44.801Z,67.60
2022-10-22T11:09:24.505Z,68.10
2022-10-22T11:11:53.990Z,68.70
2022-10-22T11:14:30.122Z,68.80
2022-10-22T11:17:01.664Z,69.30
2022-10-22T11:19:50.349Z,66.30
2022-10-22T11:22:26.455Z,66.20
2022-10-22T11:24:53.432Z,67.20
2022-10-22T11:27:20.010Z,65.50
2022-10-22T11:29:50.004Z,63.80
2022-10-22T11:32:20.914Z,65.80
2022-10-22T11:34:54.617Z,65.40
2022-10-22T11:37:22.120Z,65.70
2022-10-22T11:39:53.952Z,66.30
2022-10-22T11:42:31.751Z,65.50
2022-10-22T11:45:21.641Z,66.50
2022-10-22T11:48:07.444Z,65.80
2022-10-22T11:50:47.051Z,65.70
2022-10-22T11:53:13.679Z,64.90
2022-10-22T11:55:45.889Z,65.30
2022-10-22T11:58:30.558Z,65.40
2022-10-22T12:01:09.467Z,64.80
2022-10-22T12:03:40.939Z,62.70
2022-10-22T12:06:15.418Z,63.70
2022-10-22T12:08:46.465Z,65.70
2022-10-22T12:11:19.346Z,64.90
2022-10-22T12:13:58.434Z,64.80
2022-10-22T12:16:32.312Z,63.60
2022-10-22T12:19:17.178Z,63.00
2022-10-22T12:21:48.402Z,64.30
2022-10-22T12:24:16.762Z,65.80
2022-10-22T12:26:45.845Z,66.60
2022-10-22T12:29:14.202Z,67.00
2022-10-22T12:31:41.775Z,66.30
2022-10-22T12:34:12.931Z,67.30
2022-10-22T12:36:39.541Z,66.10
2022-10-22T12:39:11.348Z,65.70
2022-10-22T12:41:39.222Z,65.20
2022-10-22T12:44:06.361Z,65.60
2022-10-22T12:46:34.386Z,65.70
2022-10-22T12:49:05.328Z,66.70
2022-10-22T12:54:09.429Z,68.30
2022-10-22T12:56:37.279Z,67.50
2022-10-22T12:59:03.898Z,67.70
2022-10-22T13:01:40.049Z,67.80
2022-10-22T13:04:18.242Z,67.80
2022-10-22T13:06:49.375Z,66.10
2022-10-22T13:09:26.938Z,63.30
2022-10-22T13:11:58.191Z,62.80
2022-10-22T13:14:24.797Z,61.70
2022-10-22T13:17:03.596Z,61.10
2022-10-22T13:19:47.597Z,60.10
2022-10-22T13:22:23.370Z,61.30
2022-10-22T13:24:51.171Z,59.30
2022-10-22T13:27:17.965Z,58.50
2022-10-22T13:29:44.800Z,59.80
2022-10-22T13:32:40.000Z,58.70
2022-10-22T13:35:06.734Z,58.90
2022-10-22T13:37:34.179Z,59.30
2022-10-22T13:40:00.893Z,57.50
2022-10-22T13:42:27.497Z,57.30
2022-10-22T13:44:54.130Z,55.90
2022-10-22T13:47:28.601Z,56.20
2022-10-22T13:49:58.202Z,52.90
2022-10-22T13:52:28.652Z,52.20
2022-10-22T13:54:55.288Z,50.30
2022-10-22T13:57:21.918Z,51.20
2022-10-22T13:59:49.622Z,50.30
2022-10-22T14:02:16.493Z,49.30
2022-10-22T14:04:43.617Z,48.30
2022-10-22T14:07:13.182Z,45.70
2022-10-22T14:09:39.900Z,47.70
2022-10-22T14:12:11.334Z,46.90
2022-10-22T14:14:38.252Z,47.00
2022-10-22T14:17:05.639Z,45.00
2022-10-22T14:19:32.325Z,44.00
2022-10-22T14:21:59.015Z,44.60
2022-10-22T14:24:25.645Z,41.10
2022-10-22T14:26:52.269Z,41.90
2022-10-22T14:29:18.877Z,41.10
2022-10-22T14:31:45.564Z,41.90
2022-10-22T14:34:13.434Z,40.30
2022-10-22T14:36:40.168Z,40.90
2022-10-22T14:39:06.836Z,39.60
2022-10-22T14:41:33.692Z,38.20
2022-10-22T14:44:00.362Z,37.60
2022-10-22T14:46:27.041Z,37.50
2022-10-22T14:48:53.669Z,37.50
2022-10-22T14:51:21.113Z,37.40
2022-10-22T14:53:48.125Z,40.60
2022-10-22T14:56:16.066Z,42.00
2022-10-22T14:58:42.722Z,42.00
2022-10-22T15:01:09.430Z,40.20
2022-10-22T15:03:36.330Z,40.20
2022-10-22T15:06:03.059Z,40.50
2022-10-22T15:08:29.977Z,42.60
2022-10-22T15:11:00.752Z,41.30
2022-10-22T15:13:28.917Z,39.80
2022-10-22T15:15:56.078Z,39.40
2022-10-22T15:18:23.325Z,38.90
2022-10-22T15:21:00.126Z,39.30
2022-10-22T15:23:27.358Z,38.90
2022-10-22T15:25:54.588Z,39.60
2022-10-22T15:28:21.403Z,40.70
2022-10-22T15:30:59.668Z,41.30
2022-10-22T15:33:28.020Z,41.80
2022-10-22T15:35:55.729Z,41.20
2022-10-22T15:38:26.665Z,41.00
2022-10-22T15:41:07.376Z,43.60
2022-10-22T15:43:34.999Z,46.10
2022-10-22T15:46:16.842Z,49.20
2022-10-22T15:48:43.920Z,52.60
2022-10-22T15:51:16.643Z,53.70
2022-10-22T15:53:43.577Z,55.60
2022-10-22T15:56:11.979Z,57.40
2022-10-22T15:58:39.538Z,57.80
2022-10-22T16:01:12.183Z,58.50
2022-10-22T16:03:39.780Z,59.60
2022-10-22T16:06:08.150Z,61.50
2022-10-22T16:08:35.119Z,62.60
2022-10-22T16:11:01.861Z,63.30
2022-10-22T16:13:28.588Z,63.90
2022-10-22T16:15:55.373Z,64.40
2022-10-22T16:18:23.530Z,64.80
2022-10-22T16:20:50.287Z,64.90
2022-10-22T16:23:18.845Z,64.90
2022-10-22T16:25:46.343Z,65.50
2022-10-22T16:28:13.620Z,65.90
2022-10-22T16:30:41.575Z,65.90
2022-10-22T16:33:09.660Z,66.40
2022-10-22T16:35:41.287Z,64.60
2022-10-22T16:38:10.202Z,65.60
2022-10-22T16:40:37.221Z,66.90
2022-10-22T16:43:04.006Z,68.70
2022-10-22T16:45:30.720Z,67.20
2022-10-22T16:47:57.477Z,67.50
2022-10-22T16:50:24.235Z,68.00
2022-10-22T16:52:50.963Z,70.50
2022-10-22T16:55:17.894Z,70.80
2022-10-22T16:57:51.124Z,71.10
2022-10-22T17:00:18.184Z,70.00
2022-10-22T17:02:44.912Z,70.40
2022-10-22T17:05:11.622Z,71.30
2022-10-22T17:07:38.308Z,72.10
2022-10-22T17:10:05.547Z,71.90
2022-10-22T17:12:35.256Z,72.60
2022-10-22T17:15:04.152Z,73.20
2022-10-22T17:17:31.182Z,74.30
2022-10-22T17:19:57.941Z,74.30
2022-10-22T17:22:24.997Z,73.80
2022-10-22T17:25:15.073Z,74.90
2022-10-22T17:27:43.358Z,77.00
2022-10-22T17:30:14.523Z,76.70
2022-10-22T17:32:41.295Z,76.40
2022-10-22T17:35:09.024Z,76.20
2022-10-22T17:37:36.314Z,75.90
2022-10-22T17:40:04.978Z,75.60
2022-10-22T17:42:31.895Z,74.70
2022-10-22T17:44:58.630Z,74.20
2022-10-22T17:47:25.349Z,74.00
2022-10-22T17:49:52.201Z,74.20
2022-10-22T17:52:19.081Z,74.20
2022-10-22T17:54:49.247Z,74.60
2022-10-22T17:57:16.018Z,74.30
2022-10-22T17:59:42.835Z,75.00
2022-10-22T18:02:16.711Z,74.50
2022-10-22T18:04:44.001Z,75.20
2022-10-22T18:07:10.753Z,75.20
2022-10-22T18:09:38.882Z,75.00
2022-10-22T18:12:06.152Z,75.40
2022-10-22T18:14:32.998Z,74.10
2022-10-22T18:17:02.582Z,74.30
2022-10-22T18:19:30.272Z,75.90
2022-10-22T18:21:57.014Z,76.20
2022-10-22T18:24:23.710Z,77.30
2022-10-22T18:26:50.511Z,76.50
2022-10-22T18:29:19.029Z,76.10
2022-10-22T18:31:45.967Z,75.60
2022-10-22T18:34:13.083Z,75.10
2022-10-22T18:36:41.194Z,75.10
2022-10-22T18:39:08.143Z,74.00
2022-10-22T18:41:35.879Z,76.00
2022-10-22T18:44:05.308Z,76.60
2022-10-22T18:46:34.804Z,76.40
2022-10-22T18:49:01.601Z,76.80
2022-10-22T18:51:30.885Z,76.70
2022-10-22T18:54:05.513Z,77.60
2022-10-22T18:56:44.806Z,76.80
2022-10-22T18:59:18.614Z,74.60
2022-10-22T19:01:45.356Z,73.90
2022-10-22T19:04:13.590Z,75.70
2022-10-22T19:06:45.120Z,77.40
2022-10-22T19:09:13.893Z,77.20
2022-10-22T19:11:40.781Z,76.70
2022-10-22T19:14:07.461Z,76.80
2022-10-22T19:16:35.048Z,76.30
2022-10-22T19:19:07.037Z,75.80
2022-10-22T19:21:35.284Z,75.60
2022-10-22T19:24:02.418Z,75.40
2022-10-22T19:26:30.587Z,75.50
2022-10-22T19:29:00.510Z,75.70
2022-10-22T19:31:29.883Z,75.70
2022-10-22T19:33:57.600Z,75.60
2022-10-22T19:36:25.629Z,75.40
2022-10-22T19:38:52.496Z,75.80
2022-10-22T19:41:21.089Z,75.60
2022-10-22T19:43:50.686Z,76.60
2022-10-22T19:46:18.321Z,76.60
2022-10-22T19:51:22.621Z,76.90
2022-10-22T19:53:49.614Z,77.20
2022-10-22T19:56:18.987Z,76.30
2022-10-22T19:58:46.136Z,76.20
2022-10-22T20:01:15.605Z,76.80
2022-10-22T20:03:42.768Z,76.20
2022-10-22T20:06:11.723Z,76.30
2022-10-22T20:08:39.264Z,76.20
2022-10-22T20:11:08.647Z,76.40
2022-10-22T20:13:36.209Z,76.40
2022-10-22T20:16:03.869Z,76.10
2022-10-22T20:18:33.914Z,76.10
2022-10-22T20:21:08.424Z,76.10
2022-10-22T20:23:35.482Z,76.30
2022-10-22T20:26:02.252Z,76.30
2022-10-22T20:28:28.962Z,76.50
2022-10-22T20:30:55.665Z,76.30
2022-10-22T20:33:22.610Z,76.70
2022-10-22T20:36:00.185Z,76.50
2022-10-22T20:38:27.403Z,76.80
2022-10-22T20:41:06.634Z,76.90
2022-10-22T20:43:34.056Z,76.70
2022-10-22T20:46:00.974Z,76.50
2022-10-22T20:48:31.198Z,76.50
2022-10-22T20:50:59.654Z,76.50
2022-10-22T20:53:27.184Z,76.70
2022-10-22T20:55:57.345Z,76.20
2022-10-22T20:58:26.691Z,76.70
2022-10-22T21:00:55.305Z,77.00
2022-10-22T21:03:22.683Z,77.60
2022-10-22T21:05:49.519Z,76.50
2022-10-22T21:08:17.509Z,77.60
2022-10-22T21:10:48.976Z,78.10
2022-10-22T21:13:19.085Z,77.80
2022-10-22T21:15:45.882Z,77.80
2022-10-22T21:18:12.668Z,77.60
2022-10-22T21:20:40.254Z,78.10
2022-10-22T21:23:07.553Z,77.20
2022-10-22T21:25:38.342Z,76.10
2022-10-22T21:28:07.318Z,77.00
2022-10-22T21:30:33.995Z,78.10
2022-10-22T21:33:00.655Z,78.30
2022-10-22T21:35:27.355Z,79.00
2022-10-22T21:37:54.096Z,79.20
2022-10-22T21:40:21.856Z,77.90
2022-10-22T21:42:50.218Z,77.90
2022-10-22T21:45:19.993Z,78.60
2022-10-22T21:47:48.865Z,78.30
2022-10-22T21:50:15.641Z,78.20
2022-10-22T21:52:42.320Z,78.00
2022-10-22T21:55:09.335Z,77.70
2022-10-22T21:57:36.237Z,76.70
2022-10-22T22:00:04.960Z,78.00
2022-10-22T22:02:32.149Z,77.30
2022-10-22T22:04:58.810Z,76.90
2022-10-22T22:07:25.569Z,77.20
2022-10-22T22:09:52.264Z,77.40
2022-10-22T22:12:20.458Z,76.70
2022-10-22T22:14:47.487Z,78.00
2022-10-22T22:17:16.387Z,79.50
2022-10-22T22:19:43.064Z,79.50
2022-10-22T22:22:09.761Z,79.50
2022-10-22T22:24:38.285Z,78.90
2022-10-22T22:27:05.080Z,78.00
2022-10-22T22:29:31.810Z,78.20
2022-10-22T22:31:58.542Z,78.10
2022-10-22T22:34:25.208Z,78.00
2022-10-22T22:36:51.895Z,77.70
2022-10-22T22:39:20.693Z,77.90
2022-10-22T22:41:47.991Z,77.70
2022-10-22T22:44:15.315Z,76.90
2022-10-22T22:46:42.605Z,77.60
2022-10-22T22:49:09.641Z,77.50
2022-10-22T22:51:36.431Z,77.90
2022-10-22T22:54:03.143Z,78.20
2022-10-22T22:56:31.933Z,77.70
2022-10-22T22:58:58.901Z,77.90
2022-10-22T23:01:37.016Z,77.90
2022-10-22T23:04:25.231Z,78.00
2022-10-22T23:06:52.436Z,77.80
2022-10-22T23:11:51.928Z,78.30
2022-10-22T23:14:19.759Z,78.80
2022-10-22T23:16:50.489Z,78.10
2022-10-22T23:19:20.835Z,78.30
2022-10-22T23:21:55.400Z,78.50
2022-10-22T23:24:25.588Z,78.00
2022-10-22T23:26:54.310Z,77.70
2022-10-22T23:29:24.204Z,77.80
2022-10-22T23:31:52.057Z,77.40
2022-10-22T23:34:24.329Z,77.30
2022-10-22T23:36:51.759Z,77.30
2022-10-22T23:39:21.472Z,76.70
2022-10-22T23:41:48.184Z,77.00
2022-10-22T23:44:14.854Z,76.80
2022-10-22T23:46:41.574Z,76.40
2022-10-22T23:49:09.837Z,75.60
2022-10-22T23:51:37.229Z,75.70
2022-10-22T23:54:06.655Z,76.40
2022-10-22T23:56:33.747Z,76.90
2022-10-22T23:59:00.477Z,76.40
